Ortonville, MN

9:27 PM CDT on July 31, 2014 (GMT -0500)
Ortonville Municipal-Martinson (KVVV) Elev 1099 ft | 45.31 °N, 96.42 °W | Change Station

Current weather conditions updated 13 minutes ago

Clear
Clear
70 °F
Feels Like 70 °F
N
0
Wind Variable Wind from North

Tomorrow is forecast to be nearly the same temperature as today.

Today
High -- | Low -- °F
--% Chance of Precip.
Yesterday
High -- | Low -- °F
Precip. -- in
6:09 AM 8:54 PM
Waxing Crescent, 22% visible
Pressure 30.02 in
Visibility 10.0 miles
Clouds Clear
Dew Point 61 °F
Humidity 73%
Rainfall 0.00 in
Snow Depth Not available.
UV 0 out of 12
Pollen 7.40 out of 12
Air Quality Not available.
Flu Activity Not available.
METAR KVVV 010214Z AUTO 00000KT 10SM CLR 21/16 A3002 RMK AO2

More Conditions Fewer Conditions

Pressure 30.02 in
Visibility 10.0 miles
Clouds Clear
Dew Point 61 °F
Humidity 73%
Rainfall 0.00 in
Snow Depth Not available.
UV 0 out of 12
Pollen 7.40 out of 12
Air Quality Not available.
Flu Activity Not available.
METAR KVVV 010214Z AUTO 00000KT 10SM CLR 21/16 A3002 RMK AO2

More Conditions Fewer Conditions

10-Day Weather Forecast

Almanac

Astronomy

Jul. 31, 2014 Rise Set
Actual Time 6:09 AM CDT 8:54 PM CDT
Civil Twilight 5:34 AM CDT 9:28 PM CDT
Nautical Twilight 4:51 AM CDT 10:11 PM CDT
Astronomical Twilight 4:01 AM CDT 11:01 PM CDT
Moon 10:52 AM CDT (7/31) 10:51 PM CDT (7/31)
Length of Visible Light 15h 53m
Length of Day
14h 45m
Tomorrow will be 2m 24s shorter.
Waxing Crescent, 22% of the Moon is Illuminated
Today
Waxing Crescent
Aug 3
First Quarter
Aug 10
Full
Aug 17
Last Quarter
Aug 25
New

Today's Extremes

State Highs State Lows

Community

WunderPhotos

Upload Photos

1,739,502 photos uploaded!

Nearby

Snow Depth

Station Depth Elevation
No new snow has been reported.

Earthquake Activity

City Distance Mag. Time & Date
No recent earthquake activity has been reported nearby.
Minimum magnitude displayed is 2.5.

Coastal Water Temperatures

Place Temperature
No Stations Reporting

Nearby Weather Stations

Station Location Temp. Heat Index Dew Point Humidity Wind Precip. Elev Updated Type
RAWS BIG STONE NWR MN, Odessa, MN 77 °F 79 °F 64 °F 64% North  at  3 mph 0.00 in / hr 877 ft 7:51 PM CDT MADIS
Linden Beach, Corona, SD 69.4 °F - 65 °F 85% SSW  at  0.0 mph 0.00 in / hr 974 ft 9:26 PM CDT Rapid Fire

Show More Stations Show Fewer Stations